Time;durP1;ratioP1;P1;durP2;ratioP2;P2;SDS_P1;SDS_P2;PMS_P1;PMS_P2;Temp;Humidity;BMP_temperature;BMP_pressure;BME280_temperature;BME280_humidity;BME280_pressure;Samples;Min_cycle;Max_cycle;Signal;HPM_P1;HPM_P2
2021/01/05 00:00:13;;;;;;;10.20;8.20;;;6.10;99.90;;;;;;6151015;23;20173;-81
2021/01/05 00:02:39;;;;;;;9.80;8.80;;;6.10;99.90;;;;;;6153346;23;20518;-81
2021/01/05 00:05:08;;;;;;;9.63;8.82;;;6.10;99.90;;;;;;6153870;23;20425;-81
2021/01/05 00:07:36;;;;;;;9.00;7.57;;;6.10;99.90;;;;;;6152954;23;20213;-82
2021/01/05 00:10:05;;;;;;;9.55;8.63;;;6.10;99.90;;;;;;6153063;23;20601;-81
2021/01/05 00:12:31;;;;;;;8.15;7.35;;;6.20;99.90;;;;;;6154287;23;20154;-82
2021/01/05 00:14:57;;;;;;;8.77;7.30;;;6.20;99.90;;;;;;6154120;23;20248;-82
2021/01/05 00:17:23;;;;;;;8.73;7.80;;;6.10;99.90;;;;;;6153560;23;20533;-82
2021/01/05 00:19:49;;;;;;;9.27;8.35;;;6.10;99.90;;;;;;6133290;23;20562;-82
2021/01/05 00:22:16;;;;;;;9.48;8.57;;;6.10;99.90;;;;;;6155392;23;20177;-82
2021/01/05 00:24:42;;;;;;;10.82;8.88;;;6.10;99.90;;;;;;6154538;23;20146;-82
2021/01/05 00:27:09;;;;;;;9.27;8.38;;;6.10;99.90;;;;;;6128414;23;20611;-83
2021/01/05 00:29:35;;;;;;;9.23;8.32;;;6.10;99.90;;;;;;6152946;23;20754;-83
2021/01/05 00:32:16;;;;;;;9.75;8.60;;;6.10;99.90;;;;;;6153933;23;20207;-82
2021/01/05 00:34:43;;;;;;;10.05;9.13;;;6.10;99.90;;;;;;6103273;23;20174;-82
2021/01/05 00:37:10;;;;;;;10.00;9.00;;;6.10;99.90;;;;;;6154523;23;20131;-84
2021/01/05 00:39:35;;;;;;;10.25;9.18;;;6.10;99.90;;;;;;6155664;23;20162;-83
2021/01/05 00:42:01;;;;;;;9.30;8.20;;;6.10;99.90;;;;;;6153590;23;20838;-83
2021/01/05 00:44:28;;;;;;;11.70;10.05;;;6.10;99.90;;;;;;6153758;23;20532;-83
2021/01/05 00:46:55;;;;;;;10.35;8.48;;;6.10;99.90;;;;;;6153238;23;20749;-83
2021/01/05 00:49:21;;;;;;;9.55;8.65;;;6.00;99.90;;;;;;6152720;23;20146;-83
2021/01/05 00:51:47;;;;;;;8.63;7.73;;;6.00;99.90;;;;;;6153012;23;20161;-83
2021/01/05 00:54:13;;;;;;;8.57;7.60;;;6.00;99.90;;;;;;6102543;23;20151;-83
2021/01/05 00:56:39;;;;;;;10.18;9.18;;;6.00;99.90;;;;;;6132909;23;20149;-83
2021/01/05 00:59:06;;;;;;;9.23;8.30;;;6.00;99.90;;;;;;6102087;23;20154;-84
2021/01/05 01:01:32;;;;;;;8.77;7.85;;;6.00;99.90;;;;;;6127012;23;20156;-84
2021/01/05 01:03:58;;;;;;;8.30;7.50;;;6.00;99.90;;;;;;6153174;23;20597;-84
2021/01/05 01:06:24;;;;;;;9.90;7.68;;;6.00;99.90;;;;;;6127111;23;20978;-84
2021/01/05 01:08:51;;;;;;;8.07;7.25;;;6.00;99.90;;;;;;6139125;23;20277;-83
2021/01/05 01:11:18;;;;;;;8.68;7.50;;;6.00;99.90;;;;;;6151170;23;20167;-83
2021/01/05 01:13:46;;;;;;;8.55;7.63;;;6.00;99.90;;;;;;6151684;23;20142;-83
2021/01/05 01:16:13;;;;;;;10.15;7.47;;;6.00;99.90;;;;;;6151744;23;20225;-83
2021/01/05 01:18:40;;;;;;;9.07;8.18;;;6.00;99.90;;;;;;6151175;23;20147;-83
2021/01/05 01:21:06;;;;;;;10.35;9.15;;;6.00;99.90;;;;;;6153694;23;20170;-83
2021/01/05 01:23:32;;;;;;;8.87;8.00;;;6.00;99.90;;;;;;6155590;23;20220;-83
2021/01/05 01:26:01;;;;;;;9.02;8.13;;;6.00;99.90;;;;;;6151932;23;20569;-83
2021/01/05 01:28:29;;;;;;;9.48;8.57;;;6.00;99.90;;;;;;6151448;23;20162;-83
2021/01/05 01:30:55;;;;;;;8.55;7.75;;;6.00;99.90;;;;;;6151496;23;20166;-82
2021/01/05 01:33:26;;;;;;;10.05;9.05;;;6.00;99.90;;;;;;6154586;23;20130;-81
2021/01/05 01:35:58;;;;;;;10.93;9.82;;;6.00;99.90;;;;;;6129432;23;20143;-82
2021/01/05 01:38:24;;;;;;;10.00;9.00;;;6.00;99.90;;;;;;6152518;23;20534;-82
2021/01/05 01:40:54;;;;;;;10.13;7.93;;;6.00;99.90;;;;;;6150916;23;21118;-83
2021/01/05 01:43:26;;;;;;;9.32;8.05;;;6.00;99.90;;;;;;6152620;23;20219;-83
2021/01/05 01:45:54;;;;;;;8.50;7.65;;;6.00;99.90;;;;;;6151225;23;20178;-83
2021/01/05 01:48:27;;;;;;;8.60;7.70;;;6.00;99.90;;;;;;6150554;23;20154;-83
2021/01/05 01:50:59;;;;;;;9.70;8.70;;;6.00;99.90;;;;;;6153183;23;20162;-83
2021/01/05 01:54:01;;;;;;;13.02;10.65;;;6.00;99.90;;;;;;6154097;23;20134;-82
2021/01/05 01:56:50;;;;;;;9.20;8.25;;;6.00;99.90;;;;;;6129596;23;20762;-82
2021/01/05 01:59:37;;;;;;;10.50;9.50;;;6.00;99.90;;;;;;6153217;23;20205;-82
2021/01/05 02:02:16;;;;;;;8.73;7.75;;;6.00;99.90;;;;;;6153689;23;20139;-82
2021/01/05 02:04:50;;;;;;;10.35;9.15;;;6.00;99.90;;;;;;6153718;23;20146;-82
2021/01/05 02:07:45;;;;;;;9.32;8.43;;;6.00;99.90;;;;;;6152539;23;20127;-83
2021/01/05 02:10:26;;;;;;;7.55;6.85;;;6.00;99.90;;;;;;6128473;23;20174;-82
2021/01/05 02:13:22;;;;;;;8.85;7.50;;;6.00;99.90;;;;;;6155776;23;20176;-82
2021/01/05 02:16:11;;;;;;;8.75;7.85;;;5.90;99.90;;;;;;6150758;23;20150;-83
2021/01/05 02:18:52;;;;;;;8.05;7.25;;;5.90;99.90;;;;;;6151442;23;20636;-82
2021/01/05 02:21:41;;;;;;;7.18;6.47;;;5.90;99.90;;;;;;6151627;23;20180;-83
2021/01/05 02:24:36;;;;;;;8.70;7.78;;;5.90;99.90;;;;;;6150679;23;20135;-83
2021/01/05 02:27:09;;;;;;;7.85;7.13;;;5.90;99.90;;;;;;6114126;23;20193;-83
2021/01/05 02:29:58;;;;;;;9.15;8.23;;;5.90;99.90;;;;;;6150710;23;20174;-83
2021/01/05 02:32:45;;;;;;;8.75;7.85;;;5.90;99.90;;;;;;6150967;23;20448;-83
2021/01/05 02:35:42;;;;;;;9.65;8.63;;;6.00;99.90;;;;;;6150426;23;20546;-83
2021/01/05 02:39:03;;;;;;;8.32;7.30;;;5.90;99.90;;;;;;6151769;23;20142;-82
2021/01/05 02:42:17;;;;;;;7.18;6.40;;;5.90;99.90;;;;;;6151613;23;20126;-82
2021/01/05 02:45:30;;;;;;;6.88;6.15;;;5.90;99.90;;;;;;6150457;23;20146;-82
2021/01/05 02:48:37;;;;;;;8.43;7.47;;;5.90;99.90;;;;;;6157637;23;20542;-82
2021/01/05 02:51:33;;;;;;;9.10;7.80;;;6.00;99.90;;;;;;6151311;23;20480;-82
2021/01/05 02:54:32;;;;;;;10.63;9.10;;;5.90;99.90;;;;;;6150534;23;20620;-82
2021/01/05 02:57:41;;;;;;;10.40;8.15;;;5.90;99.90;;;;;;6151622;23;20134;-83
2021/01/05 03:00:52;;;;;;;11.00;9.07;;;5.90;99.90;;;;;;6150061;23;20680;-83
2021/01/05 03:03:46;;;;;;;9.02;7.13;;;5.90;99.90;;;;;;6150889;23;20131;-83
2021/01/05 03:06:44;;;;;;;8.48;7.30;;;5.90;99.90;;;;;;6151888;23;20241;-82
2021/01/05 03:09:46;;;;;;;9.75;8.13;;;5.90;99.90;;;;;;6151100;23;21664;-81
2021/01/05 03:12:54;;;;;;;8.63;7.72;;;5.90;99.90;;;;;;6127447;23;20150;-81
2021/01/05 03:15:44;;;;;;;8.93;7.93;;;5.90;99.90;;;;;;6152979;23;20210;-82
2021/01/05 03:18:57;;;;;;;10.82;9.07;;;5.90;99.90;;;;;;6123481;23;20221;-81
2021/01/05 03:21:50;;;;;;;10.25;8.73;;;5.90;99.90;;;;;;6152666;23;20173;-81
2021/01/05 03:24:35;;;;;;;10.55;8.10;;;5.90;99.90;;;;;;6154116;23;20131;-81
2021/01/05 03:27:21;;;;;;;10.00;8.48;;;5.90;99.90;;;;;;6155401;23;20228;-82
2021/01/05 03:30:12;;;;;;;9.43;8.20;;;5.90;99.90;;;;;;6152428;23;20483;-81
2021/01/05 03:32:56;;;;;;;11.25;9.98;;;5.90;99.90;;;;;;6153421;23;20174;-82
2021/01/05 03:35:40;;;;;;;9.10;7.80;;;5.90;99.90;;;;;;6134461;23;20162;-82
2021/01/05 03:38:25;;;;;;;10.40;8.73;;;5.90;99.90;;;;;;6156038;23;20134;-82
2021/01/05 03:41:09;;;;;;;11.40;9.10;;;5.90;99.90;;;;;;6156771;23;20213;-82
2021/01/05 03:43:54;;;;;;;9.80;8.80;;;5.90;99.90;;;;;;6134923;23;20446;-81
2021/01/05 03:46:38;;;;;;;10.27;8.82;;;5.90;99.90;;;;;;6156649;23;20495;-82
2021/01/05 03:49:22;;;;;;;11.88;8.90;;;6.00;99.90;;;;;;6128583;23;20797;-82
2021/01/05 03:52:06;;;;;;;9.15;7.88;;;6.00;99.90;;;;;;6129342;23;20185;-82
2021/01/05 03:54:51;;;;;;;10.75;8.10;;;6.00;99.90;;;;;;6134321;23;20150;-82
2021/01/05 03:57:36;;;;;;;9.35;8.13;;;6.00;99.90;;;;;;6129368;23;20233;-82
2021/01/05 04:00:28;;;;;;;12.57;9.38;;;6.00;99.90;;;;;;6155764;23;20170;-82
2021/01/05 04:02:58;;;;;;;14.00;8.98;;;6.00;99.90;;;;;;6084858;23;20600;-82
2021/01/05 04:05:26;;;;;;;10.23;9.15;;;6.00;99.90;;;;;;6157023;23;20186;-81
2021/01/05 04:07:52;;;;;;;11.80;9.57;;;6.00;99.90;;;;;;6174472;23;20166;-82
2021/01/05 04:10:18;;;;;;;11.38;9.38;;;6.00;99.90;;;;;;6153632;23;20628;-82
2021/01/05 04:12:47;;;;;;;9.85;8.80;;;6.00;99.90;;;;;;6103560;23;20233;-82
2021/01/05 04:15:24;;;;;;;13.18;10.00;;;5.90;99.90;;;;;;6154141;23;20224;-82
2021/01/05 04:17:51;;;;;;;9.32;7.75;;;5.90;99.90;;;;;;6153138;23;20193;-82
2021/01/05 04:20:18;;;;;;;10.15;8.15;;;6.00;99.90;;;;;;6152824;23;20166;-82
2021/01/05 04:22:44;;;;;;;10.82;8.23;;;5.90;99.90;;;;;;6153249;23;20142;-82
2021/01/05 04:25:12;;;;;;;11.00;8.60;;;6.00;99.90;;;;;;6153335;23;20549;-82
2021/01/05 04:27:37;;;;;;;12.25;9.10;;;6.00;99.90;;;;;;6152871;23;20293;-82
2021/01/05 04:30:05;;;;;;;12.33;9.10;;;6.00;99.90;;;;;;6153690;23;20213;-82
2021/01/05 04:32:31;;;;;;;10.45;8.30;;;6.00;99.90;;;;;;6153120;23;20174;-82
2021/01/05 04:34:57;;;;;;;10.00;8.27;;;6.00;99.90;;;;;;6155380;23;20197;-82
2021/01/05 04:37:22;;;;;;;11.47;9.30;;;6.00;99.90;;;;;;6126724;23;20500;-82
2021/01/05 04:39:48;;;;;;;9.17;7.50;;;6.00;99.90;;;;;;6157359;23;20163;-81
2021/01/05 04:42:31;;;;;;;11.53;9.33;;;6.00;99.90;;;;;;6152358;23;20546;-82
2021/01/05 04:45:08;;;;;;;10.32;9.18;;;6.00;99.90;;;;;;6127055;23;20138;-82
2021/01/05 04:47:50;;;;;;;9.00;6.97;;;6.00;99.90;;;;;;6151991;23;20209;-82
2021/01/05 04:50:27;;;;;;;8.18;7.38;;;6.00;99.90;;;;;;6152880;23;20162;-82
2021/01/05 04:52:57;;;;;;;10.82;9.13;;;6.00;99.90;;;;;;6153838;23;20138;-82
2021/01/05 04:55:34;;;;;;;9.65;8.57;;;6.00;99.90;;;;;;6127666;23;20456;-81
2021/01/05 04:58:12;;;;;;;9.43;7.95;;;6.00;99.90;;;;;;6152749;23;20150;-82
2021/01/05 05:00:41;;;;;;;9.95;8.25;;;6.00;99.90;;;;;;6126787;23;20173;-82
2021/01/05 05:03:29;;;;;;;10.90;8.40;;;6.00;99.90;;;;;;6153470;23;20151;-81
2021/01/05 05:06:33;;;;;;;12.18;8.32;;;6.00;99.90;;;;;;6153001;23;20256;-81
2021/01/05 05:09:15;;;;;;;8.23;7.32;;;6.00;99.90;;;;;;6106217;23;20173;-81
2021/01/05 05:12:06;;;;;;;9.25;7.57;;;6.00;99.90;;;;;;6152570;23;20182;-81
2021/01/05 05:14:58;;;;;;;8.65;7.60;;;6.00;99.90;;;;;;6151434;23;20204;-82
2021/01/05 05:17:53;;;;;;;11.02;8.30;;;6.00;99.90;;;;;;6157318;23;20139;-82
2021/01/05 05:20:38;;;;;;;12.48;9.07;;;6.00;99.90;;;;;;6153314;23;20220;-82
2021/01/05 05:23:39;;;;;;;11.93;9.52;;;6.00;99.90;;;;;;6151315;23;20127;-82
2021/01/05 05:26:12;;;;;;;11.43;9.93;;;6.00;99.90;;;;;;6152320;23;20212;-82
2021/01/05 05:28:49;;;;;;;10.10;9.07;;;5.90;99.90;;;;;;6150268;23;20169;-82
2021/01/05 05:31:21;;;;;;;9.63;7.93;;;5.90;99.90;;;;;;6152357;23;20166;-83
2021/01/05 05:33:48;;;;;;;11.00;9.10;;;5.90;99.90;;;;;;6153074;23;20158;-82
2021/01/05 05:36:28;;;;;;;9.55;8.50;;;5.90;99.90;;;;;;6152738;23;20151;-81
2021/01/05 05:39:19;;;;;;;10.55;9.18;;;5.90;99.90;;;;;;6152491;23;20217;-82
2021/01/05 05:42:01;;;;;;;11.70;8.93;;;6.00;99.90;;;;;;6152405;23;20161;-81
2021/01/05 05:44:41;;;;;;;11.57;8.38;;;6.00;99.90;;;;;;6152507;23;20137;-82
2021/01/05 05:47:36;;;;;;;9.95;8.23;;;6.00;99.90;;;;;;6152593;23;20185;-82
2021/01/05 05:50:16;;;;;;;10.57;8.50;;;6.00;99.90;;;;;;6150393;23;20174;-82
2021/01/05 05:52:57;;;;;;;10.20;7.70;;;6.00;99.90;;;;;;6160454;23;20131;-82
2021/01/05 05:55:46;;;;;;;11.77;8.68;;;6.00;99.90;;;;;;6170749;23;20150;-82
2021/01/05 05:58:17;;;;;;;9.32;7.85;;;6.10;99.90;;;;;;6168018;23;20146;-82
2021/01/05 06:00:52;;;;;;;10.20;8.73;;;6.10;99.90;;;;;;6159128;23;20625;-82
2021/01/05 06:03:21;;;;;;;12.30;9.68;;;6.10;99.90;;;;;;6156501;23;20146;-82
2021/01/05 06:05:47;;;;;;;12.80;9.85;;;6.10;99.90;;;;;;6168339;23;20178;-82
2021/01/05 06:08:19;;;;;;;11.95;8.88;;;6.10;99.90;;;;;;6169763;23;20162;-82
2021/01/05 06:10:45;;;;;;;10.82;8.45;;;6.10;99.90;;;;;;6175094;23;20347;-82
2021/01/05 06:13:12;;;;;;;12.23;9.05;;;6.20;99.90;;;;;;6174400;23;20150;-82
2021/01/05 06:15:38;;;;;;;12.50;9.40;;;6.20;99.90;;;;;;6172830;23;20166;-82
2021/01/05 06:18:09;;;;;;;10.33;8.20;;;6.20;99.90;;;;;;6174134;23;20540;-83
2021/01/05 06:20:35;;;;;;;10.38;8.85;;;6.20;99.90;;;;;;6174054;23;20565;-82
2021/01/05 06:23:01;;;;;;;13.43;10.40;;;6.20;99.90;;;;;;6172270;23;20700;-82
2021/01/05 06:25:28;;;;;;;11.68;10.15;;;6.20;99.90;;;;;;6170039;23;20182;-82
2021/01/05 06:27:54;;;;;;;10.63;9.50;;;6.20;99.90;;;;;;6159841;23;20210;-81
2021/01/05 06:30:20;;;;;;;12.47;8.80;;;6.20;99.90;;;;;;6155868;23;20629;-81
2021/01/05 06:32:46;;;;;;;8.50;7.70;;;6.20;99.90;;;;;;6163848;23;20151;-82
2021/01/05 06:35:14;;;;;;;11.17;8.47;;;6.20;99.90;;;;;;6159974;23;20574;-81
2021/01/05 06:37:40;;;;;;;10.27;9.15;;;6.30;99.90;;;;;;6153471;23;20159;-82
2021/01/05 06:40:08;;;;;;;11.50;10.07;;;6.30;99.90;;;;;;6151106;23;20186;-82
2021/01/05 06:42:35;;;;;;;9.73;8.23;;;6.20;99.90;;;;;;6154728;23;20634;-82
2021/01/05 06:45:01;;;;;;;10.63;8.45;;;6.30;99.90;;;;;;6154318;23;20146;-82
2021/01/05 06:47:27;;;;;;;14.93;10.65;;;6.30;99.90;;;;;;6151141;23;20143;-81
2021/01/05 06:49:53;;;;;;;18.15;15.55;;;6.30;99.90;;;;;;6151846;23;20678;-82
2021/01/05 06:52:19;;;;;;;16.97;13.67;;;6.20;99.90;;;;;;6153683;23;20210;-83
2021/01/05 06:54:45;;;;;;;13.17;10.90;;;6.20;99.90;;;;;;6155010;23;20522;-82
2021/01/05 06:57:11;;;;;;;11.90;10.10;;;6.20;99.90;;;;;;6153927;23;20549;-81
2021/01/05 06:59:37;;;;;;;16.00;12.32;;;6.20;99.90;;;;;;6158633;23;20166;-81
2021/01/05 07:02:06;;;;;;;12.10;9.43;;;6.30;99.90;;;;;;6159912;23;20161;-81
2021/01/05 07:04:33;;;;;;;13.18;10.20;;;6.30;99.90;;;;;;6157245;23;20895;-79
2021/01/05 07:07:00;;;;;;;15.30;11.55;;;6.30;99.90;;;;;;6150055;23;20245;-79
2021/01/05 07:09:27;;;;;;;16.75;10.18;;;6.20;99.90;;;;;;6154773;23;20209;-80
2021/01/05 07:11:53;;;;;;;13.13;9.93;;;6.20;99.90;;;;;;6126804;23;20153;-80
2021/01/05 07:14:22;;;;;;;12.70;9.90;;;6.20;99.90;;;;;;6153790;23;20142;-80
2021/01/05 07:16:49;;;;;;;12.63;9.80;;;6.20;99.90;;;;;;6126541;23;20522;-80
2021/01/05 07:19:15;;;;;;;12.85;9.15;;;6.20;99.90;;;;;;6152861;23;20150;-80
2021/01/05 07:21:42;;;;;;;14.55;10.55;;;6.20;99.90;;;;;;6127318;23;20189;-80
2021/01/05 07:24:08;;;;;;;11.20;9.65;;;6.30;99.90;;;;;;6153602;23;20139;-80
2021/01/05 07:26:36;;;;;;;11.27;10.00;;;6.20;99.90;;;;;;6127146;23;20640;-81
2021/01/05 07:29:02;;;;;;;18.15;15.15;;;6.30;99.90;;;;;;6151517;23;20655;-81
2021/01/05 07:31:28;;;;;;;15.95;13.13;;;6.20;99.90;;;;;;6125980;23;20668;-80
2021/01/05 07:33:54;;;;;;;13.45;10.70;;;6.20;99.90;;;;;;6151872;23;20623;-80
2021/01/05 07:36:30;;;;;;;12.90;10.27;;;6.30;99.90;;;;;;6127912;23;20253;-81
2021/01/05 07:38:56;;;;;;;12.80;10.35;;;6.30;99.90;;;;;;6152515;23;20593;-80
2021/01/05 07:41:22;;;;;;;13.27;9.73;;;6.30;99.90;;;;;;6153810;23;20205;-80
2021/01/05 07:43:48;;;;;;;10.13;9.13;;;6.40;99.90;;;;;;6153457;23;20533;-80
2021/01/05 07:46:21;;;;;;;12.82;10.65;;;6.40;99.90;;;;;;6158240;23;20177;-82
2021/01/05 07:48:47;;;;;;;13.15;10.15;;;6.40;99.90;;;;;;6126618;23;20547;-80
2021/01/05 07:51:13;;;;;;;12.13;10.80;;;6.40;99.90;;;;;;6151955;23;20162;-81
2021/01/05 07:53:38;;;;;;;12.50;9.30;;;6.40;99.90;;;;;;6126809;23;20704;-80
2021/01/05 07:56:04;;;;;;;12.10;9.73;;;6.40;99.90;;;;;;6153105;23;20147;-82
2021/01/05 07:58:30;;;;;;;13.45;9.38;;;6.40;99.90;;;;;;6151327;23;20550;-80
2021/01/05 08:00:56;;;;;;;10.13;8.63;;;6.40;99.90;;;;;;6126915;23;20504;-80
2021/01/05 08:03:22;;;;;;;15.90;10.70;;;6.40;99.90;;;;;;6153253;23;20226;-80
2021/01/05 08:05:50;;;;;;;14.43;10.20;;;6.40;99.90;;;;;;6151551;23;20668;-80
2021/01/05 08:08:16;;;;;;;11.82;10.55;;;6.40;99.90;;;;;;6132405;23;20569;-81
2021/01/05 08:10:42;;;;;;;14.70;9.57;;;6.40;99.90;;;;;;6151132;23;20158;-80
2021/01/05 08:13:11;;;;;;;9.60;8.43;;;6.40;99.90;;;;;;6153619;23;20593;-79
2021/01/05 08:15:42;;;;;;;10.35;9.07;;;6.40;99.90;;;;;;6151665;23;20143;-81
2021/01/05 08:18:09;;;;;;;11.93;9.50;;;6.50;99.90;;;;;;6152709;23;20230;-80
2021/01/05 08:20:35;;;;;;;12.13;9.35;;;6.50;99.90;;;;;;6152827;23;20666;-81
2021/01/05 08:23:03;;;;;;;11.18;9.23;;;6.50;99.90;;;;;;6159140;23;20139;-82
2021/01/05 08:25:31;;;;;;;14.57;12.02;;;6.50;99.90;;;;;;6152978;23;20721;-81
2021/01/05 08:27:57;;;;;;;15.55;12.38;;;6.50;99.90;;;;;;6151482;23;20162;-79
2021/01/05 08:30:26;;;;;;;14.15;11.05;;;6.50;99.90;;;;;;6151325;23;20482;-80
2021/01/05 08:32:54;;;;;;;14.68;11.13;;;6.50;99.90;;;;;;6144248;23;20139;-90
2021/01/05 08:35:23;;;;;;;14.65;9.65;;;6.60;99.90;;;;;;6162482;23;20652;-91
2021/01/05 08:37:57;;;;;;;13.50;9.60;;;6.60;99.90;;;;;;6156551;23;20135;-89
2021/01/05 08:40:30;;;;;;;15.63;11.73;;;6.60;99.90;;;;;;6155533;23;20175;-93
2021/01/05 08:42:58;;;;;;;11.40;8.60;;;6.60;99.90;;;;;;6155324;23;20135;-91
2021/01/05 08:45:24;;;;;;;13.43;10.13;;;6.60;99.90;;;;;;6155270;23;20260;-90
2021/01/05 08:47:53;;;;;;;10.30;9.20;;;6.60;99.90;;;;;;6154247;23;20197;-89
2021/01/05 08:50:28;;;;;;;10.65;9.25;;;6.60;99.90;;;;;;6154573;23;20555;-89
2021/01/05 08:52:56;;;;;;;12.20;9.60;;;6.60;99.90;;;;;;6154276;23;20135;-91
2021/01/05 08:55:22;;;;;;;9.68;8.38;;;6.70;99.90;;;;;;6154581;23;20131;-89
2021/01/05 08:57:48;;;;;;;12.50;8.20;;;6.70;99.90;;;;;;6152910;23;20161;-90
2021/01/05 09:00:14;;;;;;;11.37;8.80;;;6.70;99.90;;;;;;6157693;23;20256;-91
2021/01/05 09:02:40;;;;;;;12.95;9.90;;;6.70;99.90;;;;;;6153853;23;20205;-91
2021/01/05 09:05:06;;;;;;;12.70;9.87;;;6.80;99.90;;;;;;6157934;23;20512;-89
2021/01/05 09:07:32;;;;;;;11.02;8.98;;;6.80;99.90;;;;;;6128692;23;20158;-86
2021/01/05 09:09:58;;;;;;;12.13;9.67;;;6.80;99.90;;;;;;6153880;23;20473;-86
2021/01/05 09:12:23;;;;;;;11.23;9.30;;;6.80;99.90;;;;;;6158472;23;20174;-91
2021/01/05 09:14:49;;;;;;;10.30;8.30;;;6.80;99.90;;;;;;6136041;23;20649;-89
2021/01/05 09:17:17;;;;;;;15.90;9.33;;;6.80;99.90;;;;;;6156673;23;20166;-85
2021/01/05 09:19:42;;;;;;;10.45;9.35;;;6.90;99.90;;;;;;6153289;23;20256;-84
2021/01/05 09:22:08;;;;;;;14.23;11.93;;;6.90;99.90;;;;;;6101442;23;21347;-85
2021/01/05 09:24:34;;;;;;;12.77;10.20;;;6.80;99.90;;;;;;6153479;23;20150;-85
2021/01/05 09:27:00;;;;;;;12.10;9.40;;;6.80;99.90;;;;;;6153280;23;20245;-85
2021/01/05 09:29:27;;;;;;;10.18;8.73;;;6.90;99.90;;;;;;6153167;23;20170;-85
2021/01/05 09:31:55;;;;;;;10.73;8.13;;;6.90;99.90;;;;;;6105547;23;20154;-86
2021/01/05 09:34:22;;;;;;;11.98;8.55;;;6.90;99.90;;;;;;6154944;23;20510;-86
2021/01/05 09:36:49;;;;;;;13.15;9.63;;;7.00;99.90;;;;;;6108245;23;20155;-84
2021/01/05 09:39:19;;;;;;;11.77;9.25;;;7.00;99.90;;;;;;6126162;23;20158;-85
2021/01/05 09:42:04;;;;;;;10.20;8.00;;;7.00;99.90;;;;;;6126540;23;20166;-84
2021/01/05 09:44:31;;;;;;;9.90;8.63;;;7.00;99.90;;;;;;6152914;23;20170;-85
2021/01/05 09:46:59;;;;;;;11.23;9.38;;;6.90;99.90;;;;;;6153088;23;20241;-85
2021/01/05 09:49:27;;;;;;;15.90;9.02;;;6.90;99.90;;;;;;6152327;23;20225;-85
2021/01/05 09:51:57;;;;;;;9.85;7.47;;;6.90;99.90;;;;;;6152613;23;20146;-86
2021/01/05 09:54:24;;;;;;;11.15;9.70;;;6.90;99.90;;;;;;6153118;23;20542;-86
2021/01/05 09:56:51;;;;;;;13.68;9.93;;;6.90;99.90;;;;;;6126718;23;20201;-86
2021/01/05 09:59:18;;;;;;;11.77;9.57;;;7.00;99.90;;;;;;6125907;23;20721;-85
2021/01/05 10:01:44;;;;;;;10.93;9.60;;;7.00;99.90;;;;;;6103232;23;20152;-85
2021/01/05 10:04:10;;;;;;;12.33;9.97;;;7.00;99.90;;;;;;6152589;23;20221;-83
2021/01/05 10:06:36;;;;;;;11.97;10.10;;;7.00;99.90;;;;;;6154298;23;20272;-83
2021/01/05 10:09:10;;;;;;;11.03;9.60;;;7.00;99.90;;;;;;6166174;23;20546;-83
2021/01/05 10:11:42;;;;;;;12.30;8.63;;;7.00;99.90;;;;;;6152177;23;20127;-83
2021/01/05 10:14:10;;;;;;;13.20;10.63;;;7.10;99.90;;;;;;6130420;23;20139;-83
2021/01/05 10:16:37;;;;;;;14.95;10.93;;;7.10;99.90;;;;;;6152290;23;20150;-84
2021/01/05 10:19:04;;;;;;;13.05;10.68;;;7.10;99.90;;;;;;6125249;23;20146;-84
2021/01/05 10:21:32;;;;;;;14.48;11.32;;;7.10;99.90;;;;;;6152041;23;20197;-84
2021/01/05 10:23:58;;;;;;;14.35;10.93;;;7.10;99.90;;;;;;6150543;23;20697;-84
2021/01/05 10:26:25;;;;;;;16.98;12.02;;;7.10;99.90;;;;;;6152021;23;20173;-84
2021/01/05 10:28:51;;;;;;;13.75;10.15;;;7.10;99.90;;;;;;6151538;23;20143;-81
2021/01/05 10:31:17;;;;;;;14.40;10.95;;;7.10;99.90;;;;;;6151803;23;20158;-77
2021/01/05 10:33:43;;;;;;;13.90;10.40;;;7.10;99.90;;;;;;6151356;23;20185;-79
2021/01/05 10:36:10;;;;;;;16.60;11.40;;;7.10;99.90;;;;;;6124873;23;21035;-79
2021/01/05 10:38:35;;;;;;;15.70;11.75;;;7.10;99.90;;;;;;6151345;23;21127;-79
2021/01/05 10:41:02;;;;;;;15.17;11.43;;;7.10;99.90;;;;;;6151567;23;20201;-79
2021/01/05 10:43:27;;;;;;;14.98;10.88;;;7.10;99.90;;;;;;6150584;23;20181;-84
2021/01/05 10:45:53;;;;;;;12.37;10.50;;;7.10;99.90;;;;;;6151639;23;20178;-84
2021/01/05 10:48:19;;;;;;;10.77;9.30;;;7.10;99.90;;;;;;6151077;23;21079;-85
2021/01/05 10:50:45;;;;;;;15.13;11.73;;;7.10;99.90;;;;;;6156053;23;20197;-85
2021/01/05 10:53:11;;;;;;;14.63;11.43;;;7.10;99.90;;;;;;6152847;23;21079;-85
2021/01/05 10:55:36;;;;;;;15.20;10.87;;;7.10;99.90;;;;;;6126466;23;20296;-83
2021/01/05 10:58:03;;;;;;;14.83;11.90;;;7.10;99.90;;;;;;6151198;23;20532;-84
2021/01/05 11:00:29;;;;;;;15.13;11.50;;;7.10;99.90;;;;;;6149905;23;20174;-85
2021/01/05 11:02:55;;;;;;;15.52;11.32;;;7.00;99.90;;;;;;6150984;23;20146;-85
2021/01/05 11:05:20;;;;;;;14.40;10.03;;;7.10;99.90;;;;;;6151159;23;20143;-85
2021/01/05 11:07:51;;;;;;;12.80;10.40;;;7.10;99.90;;;;;;6150480;23;20565;-85
2021/01/05 11:10:19;;;;;;;13.88;10.90;;;7.10;99.90;;;;;;6150838;23;20167;-85
2021/01/05 11:12:45;;;;;;;14.13;10.05;;;7.10;99.90;;;;;;6150965;23;20143;-85
2021/01/05 11:15:16;;;;;;;15.00;12.10;;;7.00;99.90;;;;;;6150650;23;20489;-80
2021/01/05 11:17:46;;;;;;;15.13;10.90;;;7.10;99.90;;;;;;6148815;23;20724;-80
2021/01/05 11:20:14;;;;;;;13.68;10.35;;;7.00;99.90;;;;;;6148516;23;20190;-79
2021/01/05 11:22:40;;;;;;;13.90;10.75;;;7.10;99.90;;;;;;6150276;23;20464;-80
2021/01/05 11:25:07;;;;;;;16.20;11.95;;;7.10;99.90;;;;;;6150632;23;20202;-80
2021/01/05 11:27:34;;;;;;;17.33;12.40;;;7.10;99.90;;;;;;6151011;23;20170;-81
2021/01/05 11:30:00;;;;;;;15.32;11.00;;;7.10;99.90;;;;;;6130334;23;20174;-79
2021/01/05 11:32:28;;;;;;;12.90;9.38;;;7.10;99.90;;;;;;6148525;23;20200;-78
2021/01/05 11:34:58;;;;;;;16.90;12.00;;;7.10;99.90;;;;;;6152921;23;20124;-79
2021/01/05 11:37:24;;;;;;;12.00;9.97;;;7.10;99.90;;;;;;6151443;23;20150;-78
2021/01/05 11:39:51;;;;;;;13.37;10.53;;;7.10;99.90;;;;;;6151352;23;20586;-78
2021/01/05 11:42:22;;;;;;;15.65;11.88;;;7.10;99.90;;;;;;6150824;23;20533;-78
2021/01/05 11:44:49;;;;;;;15.80;12.27;;;7.00;99.90;;;;;;6151734;23;20131;-78
2021/01/05 11:47:19;;;;;;;15.60;10.98;;;7.00;99.90;;;;;;6151234;23;20170;-78
2021/01/05 11:49:46;;;;;;;15.10;10.95;;;7.00;99.90;;;;;;6151586;23;20194;-78
2021/01/05 11:52:12;;;;;;;14.40;10.38;;;6.90;99.90;;;;;;6151222;23;20162;-79
2021/01/05 11:54:38;;;;;;;15.13;9.73;;;6.90;99.90;;;;;;6150257;23;20157;-78
2021/01/05 11:57:04;;;;;;;15.63;11.40;;;6.90;99.90;;;;;;6152818;23;20550;-79
2021/01/05 11:59:30;;;;;;;15.43;11.27;;;6.90;99.90;;;;;;6152740;23;20523;-79
2021/01/05 12:01:56;;;;;;;15.40;12.53;;;6.90;99.90;;;;;;6126037;23;20645;-79
2021/01/05 12:04:22;;;;;;;12.95;10.27;;;6.90;99.90;;;;;;6153659;23;20534;-79
2021/01/05 12:06:49;;;;;;;16.05;10.38;;;6.80;99.90;;;;;;6157625;23;20162;-79
2021/01/05 12:09:16;;;;;;;13.80;9.68;;;6.80;99.90;;;;;;6150212;23;20555;-79
2021/01/05 12:11:44;;;;;;;15.35;10.23;;;6.80;99.90;;;;;;6152816;23;20181;-77
2021/01/05 12:14:11;;;;;;;18.55;12.80;;;6.80;99.90;;;;;;6153857;23;20197;-77
2021/01/05 12:16:39;;;;;;;15.75;11.25;;;6.80;99.90;;;;;;6151234;23;20726;-78
2021/01/05 12:19:08;;;;;;;17.58;13.65;;;6.80;99.90;;;;;;6150491;23;20809;-77
2021/01/05 12:21:37;;;;;;;16.75;11.35;;;6.80;99.90;;;;;;6152891;23;20166;-76
2021/01/05 12:24:05;;;;;;;15.32;11.15;;;6.80;99.90;;;;;;6153191;23;20170;-76
2021/01/05 12:26:34;;;;;;;15.85;10.98;;;6.90;99.90;;;;;;6153351;23;20158;-76
2021/01/05 12:29:04;;;;;;;18.48;11.45;;;6.90;99.90;;;;;;6152681;23;20150;-76
2021/01/05 12:31:29;;;;;;;20.30;15.77;;;6.90;99.90;;;;;;6151845;23;21120;-78
2021/01/05 12:33:56;;;;;;;17.80;13.47;;;6.80;99.90;;;;;;6151725;23;20153;-77
2021/01/05 12:36:34;;;;;;;14.45;10.60;;;6.80;99.90;;;;;;6153291;23;20522;-79
2021/01/05 12:39:00;;;;;;;14.73;11.80;;;6.90;99.90;;;;;;6150834;23;20139;-78
2021/01/05 12:41:36;;;;;;;15.27;10.80;;;6.90;99.90;;;;;;6151903;23;20289;-79
2021/01/05 12:44:17;;;;;;;13.02;10.55;;;6.90;99.90;;;;;;6153267;23;20573;-78
2021/01/05 12:46:43;;;;;;;14.20;10.20;;;7.00;99.90;;;;;;6151177;23;20174;-77
2021/01/05 12:49:11;;;;;;;13.95;9.55;;;7.00;99.90;;;;;;6152314;23;20158;-78
2021/01/05 12:54:31;;;;;;;14.73;9.05;;;7.00;99.90;;;;;;6182595;23;20261;-76
2021/01/05 12:57:56;;;;;;;14.80;10.57;;;7.00;99.90;;;;;;6158404;23;20450;-78
2021/01/05 13:00:25;;;;;;;15.77;11.73;;;7.00;99.90;;;;;;6166620;23;20175;-77
2021/01/05 13:03:07;;;;;;;15.75;11.65;;;7.00;99.90;;;;;;6126507;23;20185;-77
2021/01/05 13:05:55;;;;;;;14.50;11.57;;;7.10;99.90;;;;;;6126994;23;20201;-77
2021/01/05 13:08:37;;;;;;;14.80;10.88;;;7.10;99.90;;;;;;6099701;23;20177;-77
2021/01/05 13:14:43;;;;;;;15.43;10.02;;;7.00;99.90;;;;;;6134560;23;20253;-76
2021/01/05 13:17:15;;;;;;;15.77;12.05;;;7.00;99.90;;;;;;6126547;23;20135;-76
2021/01/05 13:19:49;;;;;;;17.08;11.13;;;7.00;99.90;;;;;;6165316;23;20541;-76